createdAt,value
2019-03-26T00:00:04.653Z,984.78
2019-03-26T00:01:04.758Z,985.00
2019-03-26T00:02:04.864Z,984.86
2019-03-26T00:03:05.076Z,984.86
2019-03-26T00:04:06.581Z,984.94
2019-03-26T00:05:05.386Z,985.00
2019-03-26T00:06:04.607Z,984.92
2019-03-26T00:07:04.673Z,985.06
2019-03-26T00:08:04.784Z,985.03
2019-03-26T00:09:05.238Z,985.00
2019-03-26T00:10:05.210Z,985.11
2019-03-26T00:11:05.024Z,985.00
2019-03-26T00:12:05.541Z,985.06
2019-03-26T00:13:04.734Z,985.00
2019-03-26T00:14:04.774Z,985.00
2019-03-26T00:15:04.649Z,985.06
2019-03-26T00:16:04.899Z,985.11
2019-03-26T00:17:05.417Z,984.97
2019-03-26T00:18:05.064Z,985.03
2019-03-26T00:19:05.301Z,985.08
2019-03-26T00:20:04.717Z,985.28
2019-03-26T00:21:05.026Z,985.17
2019-03-26T00:22:05.064Z,985.08
2019-03-26T00:23:05.476Z,985.03
2019-03-26T00:24:04.560Z,985.11
2019-03-26T00:25:04.750Z,985.11
2019-03-26T00:26:04.972Z,985.14
2019-03-26T00:27:08.325Z,985.19
2019-03-26T00:28:04.882Z,985.25
2019-03-26T00:29:04.986Z,985.11
2019-03-26T00:30:05.154Z,985.03
2019-03-26T00:31:04.719Z,985.22
2019-03-26T00:32:04.829Z,985.03
2019-03-26T00:33:05.241Z,985.11
2019-03-26T00:34:19.765Z,985.03
2019-03-26T00:35:05.489Z,985.25
2019-03-26T00:36:04.946Z,985.22
2019-03-26T00:37:05.154Z,985.17
2019-03-26T00:38:05.621Z,985.25
2019-03-26T00:39:04.569Z,985.17
2019-03-26T00:40:05.113Z,985.19
2019-03-26T00:41:05.332Z,985.22
2019-03-26T00:42:04.976Z,985.31
2019-03-26T00:43:05.221Z,985.19
2019-03-26T00:44:04.781Z,985.25
2019-03-26T00:45:04.916Z,985.19
2019-03-26T00:46:05.162Z,985.11
2019-03-26T00:47:05.305Z,985.20
2019-03-26T00:48:09.815Z,985.25
2019-03-26T00:49:05.267Z,985.28
2019-03-26T00:50:05.277Z,985.22
2019-03-26T00:51:04.559Z,985.41
2019-03-26T00:52:04.810Z,985.20
2019-03-26T00:53:05.086Z,985.20
2019-03-26T00:54:05.350Z,985.28
2019-03-26T00:55:05.926Z,985.25
2019-03-26T00:56:04.852Z,985.41
2019-03-26T00:57:05.227Z,985.14
2019-03-26T00:58:05.039Z,985.20
2019-03-26T00:59:05.139Z,985.28
2019-03-26T01:00:05.282Z,985.36
2019-03-26T01:01:05.457Z,985.36
2019-03-26T01:02:05.206Z,985.28
2019-03-26T01:03:05.198Z,985.23
2019-03-26T01:04:05.407Z,985.23
2019-03-26T01:05:04.818Z,985.23
2019-03-26T01:06:04.867Z,985.20
2019-03-26T01:07:05.192Z,985.28
2019-03-26T01:08:10.258Z,985.09
2019-03-26T01:09:04.678Z,985.28
2019-03-26T01:10:04.935Z,985.28
2019-03-26T01:11:05.003Z,985.36
2019-03-26T01:12:04.614Z,985.28
2019-03-26T01:13:04.623Z,985.29
2019-03-26T01:14:04.701Z,985.23
2019-03-26T01:15:04.806Z,985.47
2019-03-26T01:16:04.958Z,985.20
2019-03-26T01:17:05.076Z,985.31
2019-03-26T01:18:04.999Z,985.20
2019-03-26T01:19:05.163Z,985.20
2019-03-26T01:20:05.368Z,985.23
2019-03-26T01:21:05.528Z,985.29
2019-03-26T01:22:06.095Z,985.29
2019-03-26T01:23:04.697Z,985.36
2019-03-26T01:24:04.703Z,985.39
2019-03-26T01:25:05.273Z,985.36
2019-03-26T01:26:05.161Z,985.50
2019-03-26T01:27:04.894Z,985.42
2019-03-26T01:28:05.520Z,985.42
2019-03-26T01:29:04.989Z,985.47
2019-03-26T01:30:05.036Z,985.47
2019-03-26T01:31:05.106Z,985.28
2019-03-26T01:32:05.169Z,985.23
2019-03-26T01:33:04.520Z,985.39
2019-03-26T01:34:04.780Z,985.23
2019-03-26T01:35:05.199Z,985.31
2019-03-26T01:36:04.892Z,985.23
2019-03-26T01:37:05.051Z,985.53
2019-03-26T01:38:05.036Z,985.26
2019-03-26T01:39:05.341Z,985.26
2019-03-26T01:40:05.387Z,985.39
2019-03-26T01:41:04.810Z,985.67
2019-03-26T01:42:05.340Z,985.67
2019-03-26T01:43:10.566Z,985.50
2019-03-26T01:44:05.020Z,985.50
2019-03-26T01:45:05.016Z,985.50
2019-03-26T01:46:04.550Z,985.53
2019-03-26T01:47:04.743Z,985.47
2019-03-26T01:48:05.067Z,985.58
2019-03-26T01:49:04.574Z,985.53
2019-03-26T01:50:05.042Z,985.58
2019-03-26T01:51:05.320Z,985.44
2019-03-26T01:52:05.447Z,985.44
2019-03-26T01:53:04.788Z,985.44
2019-03-26T01:54:04.872Z,985.47
2019-03-26T01:55:05.010Z,985.61
2019-03-26T01:56:05.323Z,985.55
2019-03-26T01:57:05.371Z,985.58
2019-03-26T01:58:05.049Z,985.56
2019-03-26T01:59:05.074Z,985.61
2019-03-26T02:00:05.275Z,985.53
2019-03-26T02:01:05.378Z,985.53
2019-03-26T02:02:05.484Z,985.53
2019-03-26T02:03:04.549Z,985.53
2019-03-26T02:04:04.801Z,985.55
2019-03-26T02:05:05.384Z,985.55
2019-03-26T02:06:05.561Z,985.55
2019-03-26T02:07:04.631Z,985.61
2019-03-26T02:08:04.962Z,985.67
2019-03-26T02:09:04.975Z,985.64
2019-03-26T02:10:05.138Z,985.55
2019-03-26T02:11:05.396Z,985.53
2019-03-26T02:12:04.663Z,985.64
2019-03-26T02:13:04.966Z,985.50
2019-03-26T02:14:05.423Z,985.58
2019-03-26T02:15:04.611Z,985.53
2019-03-26T02:16:04.677Z,985.58
2019-03-26T02:17:05.204Z,985.75
2019-03-26T02:18:05.155Z,985.78
2019-03-26T02:19:05.280Z,985.61
2019-03-26T02:20:05.415Z,985.72
2019-03-26T02:21:04.784Z,985.69
2019-03-26T02:22:04.918Z,985.78
2019-03-26T02:23:05.483Z,985.69
2019-03-26T02:24:05.355Z,985.75
2019-03-26T02:25:04.538Z,985.75
2019-03-26T02:26:05.263Z,985.81
2019-03-26T02:27:04.573Z,985.75
2019-03-26T02:28:04.654Z,985.81
2019-03-26T02:29:04.699Z,985.75
2019-03-26T02:30:04.910Z,985.86
2019-03-26T02:31:04.507Z,985.78
2019-03-26T02:32:04.629Z,985.75
2019-03-26T02:33:04.701Z,985.81
2019-03-26T02:34:04.885Z,985.75
2019-03-26T02:35:19.284Z,985.72
2019-03-26T02:36:05.005Z,985.69
2019-03-26T02:37:05.025Z,985.81
2019-03-26T02:38:04.633Z,985.89
2019-03-26T02:39:04.815Z,985.69
2019-03-26T02:40:04.965Z,985.81
2019-03-26T02:41:05.095Z,985.81
2019-03-26T02:42:04.544Z,985.75
2019-03-26T02:43:09.853Z,985.92
2019-03-26T02:44:05.329Z,985.97
2019-03-26T02:45:04.732Z,985.81
2019-03-26T02:46:04.789Z,985.86
2019-03-26T02:47:05.098Z,985.86
2019-03-26T02:48:05.198Z,985.83
2019-03-26T02:49:04.829Z,985.92
2019-03-26T02:50:04.629Z,985.89
2019-03-26T02:51:05.010Z,985.97
2019-03-26T02:52:05.233Z,985.83
2019-03-26T02:53:09.134Z,985.83
2019-03-26T02:54:05.061Z,985.83
2019-03-26T02:55:05.186Z,985.78
2019-03-26T02:56:05.295Z,985.89
2019-03-26T02:57:05.098Z,985.97
2019-03-26T02:58:04.757Z,985.92
2019-03-26T02:59:05.138Z,985.94
2019-03-26T03:00:04.649Z,985.89
2019-03-26T03:01:05.112Z,985.86
2019-03-26T03:02:05.210Z,985.83
2019-03-26T03:03:04.732Z,985.83
2019-03-26T03:04:05.294Z,985.94
2019-03-26T03:05:05.337Z,985.94
2019-03-26T03:06:05.539Z,985.89
2019-03-26T03:07:04.533Z,986.03
2019-03-26T03:08:04.603Z,985.86
2019-03-26T03:09:05.179Z,986.03
2019-03-26T03:10:05.396Z,985.89
2019-03-26T03:11:04.788Z,985.92
2019-03-26T03:12:05.457Z,986.11
2019-03-26T03:13:05.520Z,985.94
2019-03-26T03:14:04.571Z,985.97
2019-03-26T03:15:04.534Z,985.94
2019-03-26T03:16:05.026Z,986.03
2019-03-26T03:17:05.191Z,985.97
2019-03-26T03:18:05.274Z,986.00
2019-03-26T03:19:04.920Z,985.94
2019-03-26T03:20:05.282Z,986.00
2019-03-26T03:21:05.357Z,986.00
2019-03-26T03:22:05.243Z,986.00
2019-03-26T03:23:05.175Z,986.00
2019-03-26T03:24:05.407Z,985.97
2019-03-26T03:25:04.780Z,985.97
2019-03-26T03:26:05.432Z,986.03
2019-03-26T03:27:05.010Z,986.00
2019-03-26T03:28:05.249Z,986.00
2019-03-26T03:29:04.641Z,985.89
2019-03-26T03:30:04.925Z,985.97
2019-03-26T03:31:05.094Z,986.03
2019-03-26T03:32:05.237Z,985.92
2019-03-26T03:33:04.543Z,986.11
2019-03-26T03:34:04.679Z,986.00
2019-03-26T03:35:05.388Z,986.00
2019-03-26T03:36:05.594Z,985.97
2019-03-26T03:37:04.695Z,985.94
2019-03-26T03:38:04.698Z,986.00
2019-03-26T03:39:04.805Z,986.06
2019-03-26T03:40:05.363Z,986.06
2019-03-26T03:41:05.440Z,986.11
2019-03-26T03:42:04.483Z,986.14
2019-03-26T03:43:09.839Z,986.03
2019-03-26T03:44:05.328Z,986.20
2019-03-26T03:45:05.345Z,985.97
2019-03-26T03:46:04.946Z,986.00
2019-03-26T03:47:05.129Z,986.06
2019-03-26T03:48:05.218Z,986.08
2019-03-26T03:49:04.576Z,986.11
2019-03-26T03:50:05.269Z,986.06
2019-03-26T03:51:05.463Z,986.00
2019-03-26T03:52:04.693Z,986.11
2019-03-26T03:53:04.762Z,986.06
2019-03-26T03:54:05.192Z,986.00
2019-03-26T03:55:05.438Z,986.14
2019-03-26T03:56:05.684Z,986.20
2019-03-26T03:57:04.931Z,986.20
2019-03-26T03:58:04.598Z,986.14
2019-03-26T03:59:04.741Z,986.22
2019-03-26T04:00:05.101Z,986.17
2019-03-26T04:01:04.605Z,986.17
2019-03-26T04:02:05.095Z,986.14
2019-03-26T04:03:05.206Z,986.14
2019-03-26T04:04:05.260Z,986.17
2019-03-26T04:05:05.330Z,986.28
2019-03-26T04:06:10.432Z,986.31
2019-03-26T04:07:05.183Z,986.22
2019-03-26T04:08:05.582Z,986.20
2019-03-26T04:09:04.994Z,986.20
2019-03-26T04:10:04.660Z,986.22
2019-03-26T04:11:05.115Z,986.36
2019-03-26T04:12:05.113Z,986.25
2019-03-26T04:13:10.143Z,986.34
2019-03-26T04:14:04.586Z,986.34
2019-03-26T04:15:04.784Z,986.28
2019-03-26T04:16:04.746Z,986.42
2019-03-26T04:17:04.941Z,986.31
2019-03-26T04:18:04.574Z,986.36
2019-03-26T04:19:05.216Z,986.39
2019-03-26T04:20:05.443Z,986.36
2019-03-26T04:21:05.489Z,986.28
2019-03-26T04:22:04.608Z,986.28
2019-03-26T04:23:04.795Z,986.34
2019-03-26T04:24:05.282Z,986.25
2019-03-26T04:25:04.840Z,986.34
2019-03-26T04:26:04.925Z,986.34
2019-03-26T04:27:05.117Z,986.36
2019-03-26T04:28:05.281Z,986.36
2019-03-26T04:29:05.416Z,986.39
2019-03-26T04:30:05.171Z,986.53
2019-03-26T04:31:05.140Z,986.53
2019-03-26T04:32:04.739Z,986.50
2019-03-26T04:33:05.195Z,986.39
2019-03-26T04:34:05.286Z,986.36
2019-03-26T04:35:04.713Z,986.33
2019-03-26T04:36:05.064Z,986.50
2019-03-26T04:37:04.996Z,986.36
2019-03-26T04:38:05.191Z,986.42
2019-03-26T04:39:04.736Z,986.45
2019-03-26T04:40:04.854Z,986.53
2019-03-26T04:41:04.942Z,986.39
2019-03-26T04:42:05.070Z,986.36
2019-03-26T04:43:05.290Z,986.53
2019-03-26T04:44:04.525Z,986.50
2019-03-26T04:45:04.866Z,986.33
2019-03-26T04:46:05.459Z,986.56
2019-03-26T04:47:09.596Z,986.47
2019-03-26T04:48:04.926Z,986.39
2019-03-26T04:49:04.576Z,986.47
2019-03-26T04:50:05.141Z,986.47
2019-03-26T04:51:04.895Z,986.58
2019-03-26T04:52:04.987Z,986.47
2019-03-26T04:53:05.236Z,986.36
2019-03-26T04:54:05.435Z,986.53
2019-03-26T04:55:04.806Z,986.42
2019-03-26T04:56:05.410Z,986.53
2019-03-26T04:57:05.471Z,986.42
2019-03-26T04:58:04.809Z,986.42
2019-03-26T04:59:04.996Z,986.33
2019-03-26T05:00:05.019Z,986.53
2019-03-26T05:01:04.608Z,986.58
2019-03-26T05:02:04.908Z,986.56
2019-03-26T05:03:05.034Z,986.58
2019-03-26T05:04:04.590Z,986.45
2019-03-26T05:05:04.895Z,986.45
2019-03-26T05:06:05.300Z,986.45
2019-03-26T05:07:09.936Z,986.58
2019-03-26T05:08:05.386Z,986.56
2019-03-26T05:09:04.515Z,986.56
2019-03-26T05:10:04.711Z,986.42
2019-03-26T05:11:05.637Z,986.42
2019-03-26T05:12:04.515Z,986.50
2019-03-26T05:13:04.795Z,986.47
2019-03-26T05:14:04.999Z,986.47
2019-03-26T05:15:05.394Z,986.53
2019-03-26T05:16:04.969Z,986.53
2019-03-26T05:17:05.106Z,986.45
2019-03-26T05:18:04.672Z,986.53
2019-03-26T05:19:04.950Z,986.42
2019-03-26T05:20:04.589Z,986.56
2019-03-26T05:21:04.646Z,986.56
2019-03-26T05:22:04.789Z,986.50
2019-03-26T05:23:04.852Z,986.69
2019-03-26T05:24:05.430Z,986.53
2019-03-26T05:25:05.872Z,986.53
2019-03-26T05:26:05.437Z,986.50
2019-03-26T05:27:04.680Z,986.50
2019-03-26T05:28:04.922Z,986.50
2019-03-26T05:29:05.659Z,986.50
2019-03-26T05:30:04.962Z,986.69
2019-03-26T05:31:05.298Z,986.58
2019-03-26T05:32:05.386Z,986.45
2019-03-26T05:33:04.868Z,986.66
2019-03-26T05:34:05.203Z,986.58
2019-03-26T05:35:04.742Z,986.63
2019-03-26T05:36:05.267Z,986.53
2019-03-26T05:37:05.579Z,986.72
2019-03-26T05:38:04.593Z,986.56
2019-03-26T05:39:04.932Z,986.44
2019-03-26T05:40:05.427Z,986.57
2019-03-26T05:41:04.838Z,986.53
2019-03-26T05:42:05.560Z,986.53
2019-03-26T05:43:10.051Z,986.56
2019-03-26T05:44:05.572Z,986.53
2019-03-26T05:45:04.771Z,986.42
2019-03-26T05:46:05.060Z,986.66
2019-03-26T05:47:05.473Z,986.57
2019-03-26T05:48:04.552Z,986.60
2019-03-26T05:49:04.793Z,986.57
2019-03-26T05:50:04.648Z,986.57
2019-03-26T05:51:04.998Z,986.77
2019-03-26T05:52:05.395Z,986.71
2019-03-26T05:53:04.612Z,986.71
2019-03-26T05:54:04.911Z,986.63
2019-03-26T05:55:05.314Z,986.71
2019-03-26T05:56:05.566Z,986.68
2019-03-26T05:57:04.659Z,986.63
2019-03-26T05:58:04.881Z,986.82
2019-03-26T05:59:04.820Z,986.85
2019-03-26T06:00:04.573Z,986.68
2019-03-26T06:01:04.846Z,986.74
2019-03-26T06:02:17.907Z,986.80
2019-03-26T06:03:04.693Z,986.74
2019-03-26T06:04:05.203Z,986.77
2019-03-26T06:05:04.535Z,986.63
2019-03-26T06:06:04.971Z,986.68
2019-03-26T06:07:05.748Z,986.82
2019-03-26T06:08:05.445Z,986.60
2019-03-26T06:09:04.769Z,986.68
2019-03-26T06:10:05.406Z,986.68
2019-03-26T06:11:05.204Z,986.63
2019-03-26T06:12:04.676Z,986.65
2019-03-26T06:13:04.772Z,986.68
2019-03-26T06:14:05.469Z,986.71
2019-03-26T06:15:05.548Z,986.76
2019-03-26T06:16:04.956Z,986.71
2019-03-26T06:17:05.247Z,986.79
2019-03-26T06:18:05.428Z,986.68
2019-03-26T06:19:04.595Z,986.74
2019-03-26T06:20:05.258Z,986.96
2019-03-26T06:21:04.946Z,986.74
2019-03-26T06:22:05.485Z,986.90
2019-03-26T06:23:05.248Z,986.93
2019-03-26T06:24:04.728Z,986.90
2019-03-26T06:25:05.386Z,986.87
2019-03-26T06:26:05.419Z,986.76
2019-03-26T06:27:05.135Z,986.90
2019-03-26T06:28:05.194Z,987.01
2019-03-26T06:29:10.590Z,986.84
2019-03-26T06:30:05.124Z,986.82
2019-03-26T06:31:05.247Z,986.82
2019-03-26T06:32:05.411Z,986.87
2019-03-26T06:33:04.515Z,986.90
2019-03-26T06:34:04.776Z,986.79
2019-03-26T06:35:04.870Z,986.73
2019-03-26T06:36:05.455Z,986.93
2019-03-26T06:37:18.345Z,986.90
2019-03-26T06:38:05.140Z,986.81
2019-03-26T06:39:04.682Z,986.70
2019-03-26T06:40:05.159Z,986.76
2019-03-26T06:41:04.741Z,986.90
2019-03-26T06:42:04.797Z,986.84
2019-03-26T06:43:10.536Z,986.90
2019-03-26T06:44:05.047Z,986.90
2019-03-26T06:45:05.339Z,986.95
2019-03-26T06:46:05.144Z,986.98
2019-03-26T06:47:05.341Z,986.95
2019-03-26T06:48:05.281Z,986.87
2019-03-26T06:49:04.721Z,986.86
2019-03-26T06:50:05.142Z,986.95
2019-03-26T06:51:05.220Z,986.98
2019-03-26T06:52:04.874Z,986.92
2019-03-26T06:53:05.031Z,987.00
2019-03-26T06:54:05.190Z,986.95
2019-03-26T06:55:05.502Z,986.95
2019-03-26T06:56:04.711Z,987.03
2019-03-26T06:57:04.618Z,987.03
2019-03-26T06:58:05.063Z,987.03
2019-03-26T06:59:05.530Z,987.03
2019-03-26T07:00:07.831Z,987.09
2019-03-26T07:01:05.458Z,987.20
2019-03-26T07:02:05.353Z,987.14
2019-03-26T07:03:06.066Z,987.20
2019-03-26T07:04:04.574Z,987.25
2019-03-26T07:05:04.710Z,987.11
2019-03-26T07:06:04.742Z,987.11
2019-03-26T07:07:05.366Z,987.08
2019-03-26T07:08:04.830Z,987.20
2019-03-26T07:09:04.569Z,987.08
2019-03-26T07:10:04.669Z,987.14
2019-03-26T07:11:04.780Z,987.11
2019-03-26T07:12:08.087Z,987.14
2019-03-26T07:13:04.990Z,987.08
2019-03-26T07:14:05.391Z,987.08
2019-03-26T07:15:04.467Z,987.14
2019-03-26T07:16:04.783Z,987.22
2019-03-26T07:17:04.818Z,987.22
2019-03-26T07:18:05.370Z,987.28
2019-03-26T07:19:05.611Z,987.36
2019-03-26T07:20:04.529Z,987.25
2019-03-26T07:21:04.661Z,987.39
2019-03-26T07:22:04.822Z,987.25
2019-03-26T07:23:05.008Z,987.36
2019-03-26T07:24:05.004Z,987.30
2019-03-26T07:25:05.080Z,987.36
2019-03-26T07:26:05.465Z,987.22
2019-03-26T07:27:04.803Z,987.25
2019-03-26T07:28:05.395Z,987.25
2019-03-26T07:29:04.658Z,987.33
2019-03-26T07:30:05.000Z,987.19
2019-03-26T07:31:05.518Z,987.22
2019-03-26T07:32:05.582Z,987.38
2019-03-26T07:33:05.149Z,987.30
2019-03-26T07:34:07.757Z,987.19
2019-03-26T07:35:04.749Z,987.21
2019-03-26T07:36:04.916Z,987.30
2019-03-26T07:37:04.654Z,987.30
2019-03-26T07:38:04.776Z,987.10
2019-03-26T07:39:05.154Z,987.16
2019-03-26T07:40:05.339Z,987.30
2019-03-26T07:41:05.391Z,987.41
2019-03-26T07:42:05.567Z,987.24
2019-03-26T07:43:10.048Z,987.27
2019-03-26T07:44:04.487Z,987.30
2019-03-26T07:45:04.635Z,987.30
2019-03-26T07:46:04.733Z,987.21
2019-03-26T07:47:05.271Z,987.27
2019-03-26T07:48:05.435Z,987.27
2019-03-26T07:49:04.913Z,987.21
2019-03-26T07:50:05.243Z,987.32
2019-03-26T07:51:05.517Z,987.40
2019-03-26T07:52:04.610Z,987.21
2019-03-26T07:53:05.366Z,987.35
2019-03-26T07:54:04.814Z,987.26
2019-03-26T07:55:04.460Z,987.18
2019-03-26T07:56:04.846Z,987.21
2019-03-26T07:57:04.831Z,987.29
2019-03-26T07:58:05.382Z,987.15
2019-03-26T07:59:04.800Z,987.46
2019-03-26T08:00:05.425Z,987.32
2019-03-26T08:01:04.609Z,987.40
2019-03-26T08:02:04.785Z,987.37
2019-03-26T08:03:10.415Z,987.29
2019-03-26T08:04:04.821Z,987.20
2019-03-26T08:05:05.683Z,987.34
2019-03-26T08:06:04.683Z,987.28
2019-03-26T08:07:04.695Z,987.51
2019-03-26T08:08:05.264Z,987.42
2019-03-26T08:09:04.906Z,987.42
2019-03-26T08:10:05.456Z,987.45
2019-03-26T08:11:04.737Z,987.48
2019-03-26T08:12:05.053Z,987.56
2019-03-26T08:13:05.128Z,987.59
2019-03-26T08:14:05.496Z,987.53
2019-03-26T08:15:04.562Z,987.62
2019-03-26T08:16:05.287Z,987.56
2019-03-26T08:17:05.403Z,987.64
2019-03-26T08:18:04.868Z,987.53
2019-03-26T08:19:04.798Z,987.65
2019-03-26T08:20:04.920Z,987.56
2019-03-26T08:21:05.135Z,987.65
2019-03-26T08:22:05.211Z,987.48
2019-03-26T08:23:05.383Z,987.45
2019-03-26T08:24:04.585Z,987.42
2019-03-26T08:25:04.842Z,987.53
2019-03-26T08:26:04.941Z,987.51
2019-03-26T08:27:05.012Z,987.36
2019-03-26T08:28:05.835Z,987.56
2019-03-26T08:29:04.619Z,987.56
2019-03-26T08:30:05.127Z,987.53
2019-03-26T08:31:04.753Z,987.45
2019-03-26T08:32:05.257Z,987.34
2019-03-26T08:33:04.684Z,987.48
2019-03-26T08:34:04.839Z,987.51
2019-03-26T08:35:04.928Z,987.59
2019-03-26T08:36:05.232Z,987.53
2019-03-26T08:37:04.710Z,987.45
2019-03-26T08:38:13.520Z,987.39
2019-03-26T08:39:05.283Z,987.48
2019-03-26T08:40:05.249Z,987.48
2019-03-26T08:41:04.976Z,987.45
2019-03-26T08:42:05.338Z,987.48
2019-03-26T08:43:04.686Z,987.48
2019-03-26T08:44:05.351Z,987.56
2019-03-26T08:45:04.901Z,987.51
2019-03-26T08:46:09.930Z,987.51
2019-03-26T08:47:05.484Z,987.65
2019-03-26T08:48:05.428Z,987.51
2019-03-26T08:49:04.996Z,987.56
2019-03-26T08:50:05.452Z,987.54
2019-03-26T08:51:05.303Z,987.42
2019-03-26T08:52:04.789Z,987.54
2019-03-26T08:53:05.067Z,987.48
2019-03-26T08:54:05.423Z,987.51
2019-03-26T08:55:05.029Z,987.54
2019-03-26T08:56:05.375Z,987.48
2019-03-26T08:57:05.349Z,987.54
2019-03-26T08:58:04.603Z,987.45
2019-03-26T08:59:04.858Z,987.45
2019-03-26T09:00:05.468Z,987.51
2019-03-26T09:01:05.668Z,987.48
2019-03-26T09:02:04.592Z,987.40
2019-03-26T09:03:05.333Z,987.43
2019-03-26T09:04:05.537Z,987.54
2019-03-26T09:05:04.680Z,987.51
2019-03-26T09:06:10.164Z,987.45
2019-03-26T09:07:04.644Z,987.48
2019-03-26T09:08:04.678Z,987.71
2019-03-26T09:09:05.042Z,987.60
2019-03-26T09:10:05.591Z,987.48
2019-03-26T09:11:05.581Z,987.51
2019-03-26T09:12:04.808Z,987.65
2019-03-26T09:13:05.060Z,987.51
2019-03-26T09:14:05.372Z,987.48
2019-03-26T09:15:05.341Z,987.62
2019-03-26T09:16:05.442Z,987.51
2019-03-26T09:17:05.174Z,987.68
2019-03-26T09:18:05.608Z,987.68
2019-03-26T09:19:04.895Z,987.51
2019-03-26T09:20:05.150Z,987.68
2019-03-26T09:21:05.201Z,987.57
2019-03-26T09:22:05.332Z,987.60
2019-03-26T09:23:05.012Z,987.65
2019-03-26T09:24:04.706Z,987.82
2019-03-26T09:25:05.115Z,987.60
2019-03-26T09:26:05.491Z,987.85
2019-03-26T09:27:04.744Z,987.68
2019-03-26T09:28:04.845Z,987.77
2019-03-26T09:29:05.038Z,987.71
2019-03-26T09:30:05.356Z,987.74
2019-03-26T09:31:04.853Z,987.77
2019-03-26T09:32:05.068Z,987.74
2019-03-26T09:33:05.291Z,987.71
2019-03-26T09:34:05.425Z,987.71
2019-03-26T09:35:04.945Z,987.80
2019-03-26T09:36:05.066Z,987.77
2019-03-26T09:37:04.506Z,987.79
2019-03-26T09:38:05.151Z,987.85
2019-03-26T09:39:04.855Z,987.76
2019-03-26T09:40:05.376Z,987.82
2019-03-26T09:41:04.788Z,987.76
2019-03-26T09:42:04.794Z,987.82
2019-03-26T09:43:09.903Z,987.76
2019-03-26T09:44:05.425Z,987.84
2019-03-26T09:45:04.858Z,987.70
2019-03-26T09:46:04.893Z,987.70
2019-03-26T09:47:16.808Z,987.65
2019-03-26T09:48:04.647Z,987.70
2019-03-26T09:49:04.830Z,987.76
2019-03-26T09:50:04.822Z,987.56
2019-03-26T09:51:04.565Z,987.81
2019-03-26T09:52:04.810Z,987.64
2019-03-26T09:53:04.997Z,987.70
2019-03-26T09:54:05.445Z,987.70
2019-03-26T09:55:04.738Z,987.84
2019-03-26T09:56:04.774Z,987.75
2019-03-26T09:57:05.047Z,987.67
2019-03-26T09:58:05.013Z,987.75
2019-03-26T09:59:04.696Z,987.64
2019-03-26T10:00:04.925Z,987.53
2019-03-26T10:01:05.444Z,987.58
2019-03-26T10:02:05.100Z,987.53
2019-03-26T10:03:10.432Z,987.58
2019-03-26T10:04:04.992Z,987.61
2019-03-26T10:05:05.332Z,987.73
2019-03-26T10:06:05.074Z,987.73
2019-03-26T10:07:04.788Z,987.64
2019-03-26T10:08:04.956Z,987.81
2019-03-26T10:09:05.053Z,987.53
2019-03-26T10:10:04.654Z,987.56
2019-03-26T10:11:04.745Z,987.47
2019-03-26T10:12:05.483Z,987.53
2019-03-26T10:13:04.738Z,987.56
2019-03-26T10:14:04.659Z,987.70
2019-03-26T10:15:05.195Z,987.70
2019-03-26T10:16:05.572Z,987.59
2019-03-26T10:17:04.813Z,987.70
2019-03-26T10:18:04.903Z,987.67
2019-03-26T10:19:04.989Z,987.64
2019-03-26T10:20:04.982Z,987.61
2019-03-26T10:21:04.784Z,987.42
2019-03-26T10:22:04.805Z,987.50
2019-03-26T10:23:05.456Z,987.58
2019-03-26T10:24:04.901Z,987.56
2019-03-26T10:25:05.358Z,987.53
2019-03-26T10:26:05.209Z,987.55
2019-03-26T10:27:04.861Z,987.53
2019-03-26T10:28:05.124Z,987.58
2019-03-26T10:29:30.343Z,987.61
2019-03-26T10:30:06.281Z,987.50
2019-03-26T10:31:04.800Z,987.44
2019-03-26T10:32:05.548Z,987.56
2019-03-26T10:33:04.557Z,987.64
2019-03-26T10:34:04.813Z,987.67
2019-03-26T10:35:05.494Z,987.56
2019-03-26T10:36:04.715Z,987.47
2019-03-26T10:37:04.889Z,987.56
2019-03-26T10:38:05.393Z,987.59
2019-03-26T10:39:06.172Z,987.42
2019-03-26T10:40:04.866Z,987.47
2019-03-26T10:41:05.577Z,987.53
2019-03-26T10:42:07.431Z,987.53
2019-03-26T10:43:10.139Z,987.44
2019-03-26T10:44:04.542Z,987.50
2019-03-26T10:45:04.712Z,987.47
2019-03-26T10:46:04.717Z,987.42
2019-03-26T10:47:04.694Z,987.39
2019-03-26T10:48:05.310Z,987.53
2019-03-26T10:49:04.704Z,987.44
2019-03-26T10:50:04.938Z,987.55
2019-03-26T10:51:05.114Z,987.41
2019-03-26T10:52:05.321Z,987.55
2019-03-26T10:53:05.249Z,987.44
2019-03-26T10:54:04.748Z,987.52
2019-03-26T10:55:04.924Z,987.41
2019-03-26T10:56:05.125Z,987.55
2019-03-26T10:57:05.270Z,987.50
2019-03-26T10:58:05.249Z,987.69
2019-03-26T10:59:05.356Z,987.64
2019-03-26T11:00:05.455Z,987.58
2019-03-26T11:01:05.015Z,987.41
2019-03-26T11:02:04.683Z,987.55
2019-03-26T11:03:05.204Z,987.53
2019-03-26T11:04:08.151Z,987.55
2019-03-26T11:05:04.752Z,987.61
2019-03-26T11:06:05.388Z,987.67
2019-03-26T11:07:05.267Z,987.61
2019-03-26T11:08:04.759Z,987.55
2019-03-26T11:09:24.219Z,987.55
2019-03-26T11:10:05.376Z,987.47
2019-03-26T11:11:04.992Z,987.33
2019-03-26T11:12:04.668Z,987.33
2019-03-26T11:13:04.769Z,987.44
2019-03-26T11:14:04.752Z,987.41
2019-03-26T11:15:05.337Z,987.41
2019-03-26T11:16:04.836Z,987.67
2019-03-26T11:17:05.090Z,987.61
2019-03-26T11:18:05.097Z,987.50
2019-03-26T11:19:04.662Z,987.50
2019-03-26T11:20:09.898Z,987.41
2019-03-26T11:21:04.507Z,987.36
2019-03-26T11:22:04.679Z,987.38
2019-03-26T11:23:04.763Z,987.58
2019-03-26T11:24:04.795Z,987.50
2019-03-26T11:25:04.604Z,987.52
2019-03-26T11:26:04.964Z,987.49
2019-03-26T11:27:04.577Z,987.58
2019-03-26T11:28:05.083Z,987.46
2019-03-26T11:29:04.672Z,987.60
2019-03-26T11:30:05.186Z,987.43
2019-03-26T11:31:04.881Z,987.52
2019-03-26T11:32:05.521Z,987.54
2019-03-26T11:33:04.504Z,987.52
2019-03-26T11:34:04.818Z,987.51
2019-03-26T11:35:05.007Z,987.57
2019-03-26T11:36:05.413Z,987.43
2019-03-26T11:37:04.992Z,987.37
2019-03-26T11:38:05.180Z,987.37
2019-03-26T11:39:05.398Z,987.28
2019-03-26T11:40:05.424Z,987.25
2019-03-26T11:41:04.674Z,987.16
2019-03-26T11:42:05.133Z,987.13
2019-03-26T11:43:04.625Z,987.33
2019-03-26T11:44:05.410Z,987.38
2019-03-26T11:45:05.134Z,987.27
2019-03-26T11:46:05.264Z,987.38
2019-03-26T11:47:04.717Z,987.32
2019-03-26T11:48:04.601Z,987.32
2019-03-26T11:49:05.254Z,987.30
2019-03-26T11:50:05.271Z,987.30
2019-03-26T11:51:04.907Z,987.38
2019-03-26T11:52:05.138Z,987.27
2019-03-26T11:53:05.458Z,987.38
2019-03-26T11:54:09.986Z,987.27
2019-03-26T11:55:05.565Z,987.12
2019-03-26T11:56:04.565Z,987.18
2019-03-26T11:57:04.999Z,987.18
2019-03-26T11:58:04.717Z,987.21
2019-03-26T11:59:05.107Z,987.29
2019-03-26T12:00:05.241Z,987.32
2019-03-26T12:01:04.772Z,987.32
2019-03-26T12:02:04.770Z,987.29
2019-03-26T12:03:05.148Z,987.32
2019-03-26T12:04:05.199Z,987.31
2019-03-26T12:05:05.338Z,987.29
2019-03-26T12:06:05.040Z,987.23
2019-03-26T12:07:05.147Z,987.31
2019-03-26T12:08:05.272Z,987.23
2019-03-26T12:09:05.216Z,987.23
2019-03-26T12:10:05.306Z,987.32
2019-03-26T12:11:05.329Z,987.26
2019-03-26T12:12:05.358Z,987.20
2019-03-26T12:13:05.481Z,987.14
2019-03-26T12:14:04.538Z,987.23
2019-03-26T12:15:04.818Z,987.20
2019-03-26T12:16:05.024Z,987.17
2019-03-26T12:17:05.270Z,987.23
2019-03-26T12:18:05.266Z,987.25
2019-03-26T12:19:05.867Z,987.11
2019-03-26T12:20:05.401Z,987.03
2019-03-26T12:21:05.430Z,987.20
2019-03-26T12:22:04.801Z,987.14
2019-03-26T12:23:05.067Z,987.09
2019-03-26T12:24:04.562Z,987.03
2019-03-26T12:25:04.664Z,987.06
2019-03-26T12:26:05.333Z,987.09
2019-03-26T12:27:05.376Z,987.09
2019-03-26T12:28:05.155Z,987.11